Airfield :







YOU CAN JOIN US ON...

 
LOGIN :

Register | Disclaimer

   EN    FR    IT 

 









Legend :    VFR   Marginal VFR   IFR   Intensive IFR   Very Intensive IFR
Visi :
Ceiling :
>= 8 km
>= 3000ft
5 to 8 km
1000 to 3000 ft
1500m to 5 km
500 to 1000 ft
800 to 1500m
200 to 500 ft
< 800m
< 200 ft
Symbols :   Thunderstorms  Fog  Heavy snow  Heavy precipitations  Wind > 20 kt






- Airport Elevation : 787 ft
- IATA code : RUT


KRUT - Rutland - Southern Vermont Regional

CURRENT METAR :
  • 151156Z AUTO 28012G18KT 10SM -RA OVC044 04/M02 A2943 RMK AO2 RAB46 SLP963 P0000 60000 70013 T00391022 10039 20028 53048 $

EXPIRED METARs :
  • 151056Z AUTO 27015G22KT 10SM BKN030 OVC038 03/M01 A2937 RMK AO2 SLP942 T00331011 $
  • 150956Z AUTO 25011G21KT 10SM OVC039 04/M02 A2932 RMK AO2 SLP928 T00391017 $

TAF KRUT
Valid from the 15 at 12:00 until the 16 at 12:00 UTC


151133Z 1512/1612 26016G25KT P6SM BKN030 WS020/28045KT
FM151400 26014G34KT P6SM VCSH OVC025
TEMPO 1515/1519 3SM -SHSN BR OVC020
FM152100 29012G22KT P6SM BKN028
FM160100 28010KT P6SM SCT030



MET'MAP, your aeronautical weather chart ! - Copyright ORBIFLY December 2007 - Disclaimer

ORBIFLY MET'MAP TEAM :

Programming & Development : Alexandra Zaïnal
Concept & original design : Baudouin d'Aumeries
Assistance for programming : Marc-Olivier Méhu
Technical & hardware support : Manuel Goepfert

Contact : metmap@orbifly.com




SOURCES & CREDITS :

   NOAA